sensor_id;sensor_type;location;lat;lon;timestamp;P1;durP1;ratioP1;P2;durP2;ratioP2
23322;SDS011;11833;52.554;13.554;2023-05-10T00:01:10;3.70;;;2.58;;
23322;SDS011;11833;52.554;13.554;2023-05-10T00:03:36;4.47;;;2.90;;
23322;SDS011;11833;52.554;13.554;2023-05-10T00:06:02;6.35;;;3.25;;
23322;SDS011;11833;52.554;13.554;2023-05-10T00:08:28;3.72;;;2.75;;
23322;SDS011;11833;52.554;13.554;2023-05-10T00:10:54;6.20;;;3.20;;
23322;SDS011;11833;52.554;13.554;2023-05-10T00:13:19;6.47;;;3.25;;
23322;SDS011;11833;52.554;13.554;2023-05-10T00:15:45;3.33;;;2.55;;
23322;SDS011;11833;52.554;13.554;2023-05-10T00:18:11;3.50;;;3.20;;
23322;SDS011;11833;52.554;13.554;2023-05-10T00:20:36;4.10;;;2.95;;
23322;SDS011;11833;52.554;13.554;2023-05-10T00:23:02;3.50;;;2.70;;
23322;SDS011;11833;52.554;13.554;2023-05-10T00:25:28;6.68;;;3.42;;
23322;SDS011;11833;52.554;13.554;2023-05-10T00:27:54;7.50;;;2.90;;
23322;SDS011;11833;52.554;13.554;2023-05-10T00:30:22;3.85;;;2.97;;
23322;SDS011;11833;52.554;13.554;2023-05-10T00:32:48;12.10;;;3.22;;
23322;SDS011;11833;52.554;13.554;2023-05-10T00:35:14;4.97;;;3.60;;
23322;SDS011;11833;52.554;13.554;2023-05-10T00:37:41;5.13;;;3.47;;
23322;SDS011;11833;52.554;13.554;2023-05-10T00:40:07;7.82;;;3.05;;
23322;SDS011;11833;52.554;13.554;2023-05-10T00:42:33;4.47;;;3.65;;
23322;SDS011;11833;52.554;13.554;2023-05-10T00:44:59;6.65;;;3.42;;
23322;SDS011;11833;52.554;13.554;2023-05-10T00:47:25;5.20;;;3.40;;
23322;SDS011;11833;52.554;13.554;2023-05-10T00:49:51;5.97;;;3.10;;
23322;SDS011;11833;52.554;13.554;2023-05-10T00:52:17;5.78;;;3.33;;
23322;SDS011;11833;52.554;13.554;2023-05-10T00:54:42;4.63;;;2.58;;
23322;SDS011;11833;52.554;13.554;2023-05-10T00:57:08;5.95;;;3.42;;
23322;SDS011;11833;52.554;13.554;2023-05-10T00:59:34;3.88;;;3.25;;
23322;SDS011;11833;52.554;13.554;2023-05-10T01:02:00;6.28;;;3.47;;
23322;SDS011;11833;52.554;13.554;2023-05-10T01:04:26;5.40;;;3.25;;
23322;SDS011;11833;52.554;13.554;2023-05-10T01:06:53;3.40;;;3.10;;
23322;SDS011;11833;52.554;13.554;2023-05-10T01:09:20;4.93;;;3.45;;
23322;SDS011;11833;52.554;13.554;2023-05-10T01:11:46;5.65;;;3.30;;
23322;SDS011;11833;52.554;13.554;2023-05-10T01:14:13;4.93;;;3.85;;
23322;SDS011;11833;52.554;13.554;2023-05-10T01:16:43;6.68;;;3.20;;
23322;SDS011;11833;52.554;13.554;2023-05-10T01:19:24;5.55;;;3.10;;
23322;SDS011;11833;52.554;13.554;2023-05-10T01:34:02;10.23;;;3.28;;
23322;SDS011;11833;52.554;13.554;2023-05-10T01:36:43;4.68;;;3.55;;
23322;SDS011;11833;52.554;13.554;2023-05-10T01:39:26;5.57;;;4.30;;
23322;SDS011;11833;52.554;13.554;2023-05-10T01:42:21;4.20;;;3.35;;
23322;SDS011;11833;52.554;13.554;2023-05-10T01:47:50;5.30;;;3.67;;
23322;SDS011;11833;52.554;13.554;2023-05-10T01:50:30;5.70;;;3.42;;
23322;SDS011;11833;52.554;13.554;2023-05-10T01:52:59;4.10;;;3.03;;
23322;SDS011;11833;52.554;13.554;2023-05-10T01:55:32;3.50;;;2.65;;
23322;SDS011;11833;52.554;13.554;2023-05-10T01:58:05;4.25;;;3.05;;
23322;SDS011;11833;52.554;13.554;2023-05-10T02:00:34;7.93;;;3.47;;
23322;SDS011;11833;52.554;13.554;2023-05-10T02:03:06;5.40;;;3.15;;
23322;SDS011;11833;52.554;13.554;2023-05-10T02:05:35;4.88;;;3.42;;
23322;SDS011;11833;52.554;13.554;2023-05-10T02:08:03;7.25;;;3.25;;
23322;SDS011;11833;52.554;13.554;2023-05-10T02:10:35;4.70;;;3.15;;
23322;SDS011;11833;52.554;13.554;2023-05-10T02:13:01;4.00;;;3.30;;
23322;SDS011;11833;52.554;13.554;2023-05-10T02:15:28;8.05;;;3.60;;
23322;SDS011;11833;52.554;13.554;2023-05-10T02:17:55;5.22;;;3.47;;
23322;SDS011;11833;52.554;13.554;2023-05-10T02:20:23;4.72;;;3.30;;
23322;SDS011;11833;52.554;13.554;2023-05-10T02:22:50;4.57;;;3.20;;
23322;SDS011;11833;52.554;13.554;2023-05-10T02:25:19;4.13;;;2.97;;
23322;SDS011;11833;52.554;13.554;2023-05-10T02:27:47;3.67;;;3.00;;
23322;SDS011;11833;52.554;13.554;2023-05-10T02:30:14;5.13;;;2.97;;
23322;SDS011;11833;52.554;13.554;2023-05-10T02:32:40;8.07;;;3.42;;
23322;SDS011;11833;52.554;13.554;2023-05-10T02:35:08;5.90;;;3.00;;
23322;SDS011;11833;52.554;13.554;2023-05-10T02:37:35;5.18;;;3.53;;
23322;SDS011;11833;52.554;13.554;2023-05-10T02:40:02;3.97;;;3.20;;
23322;SDS011;11833;52.554;13.554;2023-05-10T02:42:31;5.25;;;3.50;;
23322;SDS011;11833;52.554;13.554;2023-05-10T02:45:02;6.60;;;3.55;;
23322;SDS011;11833;52.554;13.554;2023-05-10T02:47:33;5.95;;;2.95;;
23322;SDS011;11833;52.554;13.554;2023-05-10T02:49:59;4.55;;;3.40;;
23322;SDS011;11833;52.554;13.554;2023-05-10T02:52:25;4.82;;;3.60;;
23322;SDS011;11833;52.554;13.554;2023-05-10T02:54:56;6.28;;;3.40;;
23322;SDS011;11833;52.554;13.554;2023-05-10T02:57:28;7.95;;;3.30;;
23322;SDS011;11833;52.554;13.554;2023-05-10T02:59:58;4.82;;;2.78;;
23322;SDS011;11833;52.554;13.554;2023-05-10T03:02:26;5.68;;;3.22;;
23322;SDS011;11833;52.554;13.554;2023-05-10T03:04:53;6.45;;;3.67;;
23322;SDS011;11833;52.554;13.554;2023-05-10T03:07:18;5.20;;;3.33;;
23322;SDS011;11833;52.554;13.554;2023-05-10T03:09:46;4.90;;;3.13;;
23322;SDS011;11833;52.554;13.554;2023-05-10T03:16:27;3.70;;;3.13;;
23322;SDS011;11833;52.554;13.554;2023-05-10T03:18:44;4.22;;;2.88;;
23322;SDS011;11833;52.554;13.554;2023-05-10T03:21:20;5.28;;;2.70;;
23322;SDS011;11833;52.554;13.554;2023-05-10T03:23:58;5.50;;;3.08;;
23322;SDS011;11833;52.554;13.554;2023-05-10T03:26:32;4.97;;;3.25;;
23322;SDS011;11833;52.554;13.554;2023-05-10T03:28:59;6.70;;;2.63;;
23322;SDS011;11833;52.554;13.554;2023-05-10T03:31:26;6.35;;;3.40;;
23322;SDS011;11833;52.554;13.554;2023-05-10T03:33:52;4.25;;;3.08;;
23322;SDS011;11833;52.554;13.554;2023-05-10T03:36:18;8.93;;;3.28;;
23322;SDS011;11833;52.554;13.554;2023-05-10T03:38:44;5.10;;;3.30;;
23322;SDS011;11833;52.554;13.554;2023-05-10T03:41:10;4.75;;;2.88;;
23322;SDS011;11833;52.554;13.554;2023-05-10T03:43:36;6.28;;;3.40;;
23322;SDS011;11833;52.554;13.554;2023-05-10T03:46:05;3.78;;;2.78;;
23322;SDS011;11833;52.554;13.554;2023-05-10T03:48:34;3.88;;;3.13;;
23322;SDS011;11833;52.554;13.554;2023-05-10T03:50:59;5.68;;;3.42;;
23322;SDS011;11833;52.554;13.554;2023-05-10T03:53:25;9.43;;;3.58;;
23322;SDS011;11833;52.554;13.554;2023-05-10T03:55:51;3.95;;;2.65;;
23322;SDS011;11833;52.554;13.554;2023-05-10T03:58:17;7.18;;;3.25;;
23322;SDS011;11833;52.554;13.554;2023-05-10T04:00:43;6.18;;;3.00;;
23322;SDS011;11833;52.554;13.554;2023-05-10T04:03:10;10.25;;;3.20;;
23322;SDS011;11833;52.554;13.554;2023-05-10T04:05:37;5.03;;;3.17;;
23322;SDS011;11833;52.554;13.554;2023-05-10T04:08:03;5.55;;;3.00;;
23322;SDS011;11833;52.554;13.554;2023-05-10T04:10:29;4.50;;;3.05;;
23322;SDS011;11833;52.554;13.554;2023-05-10T04:12:55;6.95;;;3.28;;
23322;SDS011;11833;52.554;13.554;2023-05-10T04:15:21;4.95;;;2.90;;
23322;SDS011;11833;52.554;13.554;2023-05-10T04:17:47;4.00;;;2.67;;
23322;SDS011;11833;52.554;13.554;2023-05-10T04:20:13;3.83;;;3.15;;
23322;SDS011;11833;52.554;13.554;2023-05-10T04:22:39;8.35;;;3.40;;
23322;SDS011;11833;52.554;13.554;2023-05-10T04:25:06;6.70;;;3.33;;
23322;SDS011;11833;52.554;13.554;2023-05-10T04:27:32;4.78;;;3.08;;
23322;SDS011;11833;52.554;13.554;2023-05-10T04:29:58;6.05;;;2.78;;
23322;SDS011;11833;52.554;13.554;2023-05-10T04:32:24;5.95;;;2.97;;
23322;SDS011;11833;52.554;13.554;2023-05-10T04:34:50;6.03;;;3.08;;
23322;SDS011;11833;52.554;13.554;2023-05-10T04:37:17;6.15;;;3.00;;
23322;SDS011;11833;52.554;13.554;2023-05-10T04:39:43;5.10;;;2.92;;
23322;SDS011;11833;52.554;13.554;2023-05-10T04:42:09;8.27;;;3.15;;
23322;SDS011;11833;52.554;13.554;2023-05-10T04:44:35;3.78;;;3.38;;
23322;SDS011;11833;52.554;13.554;2023-05-10T04:47:01;10.55;;;5.47;;
23322;SDS011;11833;52.554;13.554;2023-05-10T04:49:28;5.32;;;2.72;;
23322;SDS011;11833;52.554;13.554;2023-05-10T04:51:54;4.97;;;2.65;;
23322;SDS011;11833;52.554;13.554;2023-05-10T04:54:20;5.60;;;3.28;;
23322;SDS011;11833;52.554;13.554;2023-05-10T04:56:46;4.85;;;2.50;;
23322;SDS011;11833;52.554;13.554;2023-05-10T04:59:12;3.45;;;2.70;;
23322;SDS011;11833;52.554;13.554;2023-05-10T05:01:38;4.28;;;2.95;;
23322;SDS011;11833;52.554;13.554;2023-05-10T05:04:04;3.88;;;2.50;;
23322;SDS011;11833;52.554;13.554;2023-05-10T05:06:30;3.97;;;2.40;;
23322;SDS011;11833;52.554;13.554;2023-05-10T05:08:56;3.08;;;2.50;;
23322;SDS011;11833;52.554;13.554;2023-05-10T05:11:21;4.85;;;2.60;;
23322;SDS011;11833;52.554;13.554;2023-05-10T05:13:47;2.92;;;2.30;;
23322;SDS011;11833;52.554;13.554;2023-05-10T05:16:13;2.63;;;2.22;;
23322;SDS011;11833;52.554;13.554;2023-05-10T05:18:39;11.82;;;2.90;;
23322;SDS011;11833;52.554;13.554;2023-05-10T05:21:17;5.68;;;2.67;;
23322;SDS011;11833;52.554;13.554;2023-05-10T05:23:44;3.35;;;2.35;;
23322;SDS011;11833;52.554;13.554;2023-05-10T05:26:10;4.60;;;2.60;;
23322;SDS011;11833;52.554;13.554;2023-05-10T05:28:36;6.30;;;2.35;;
23322;SDS011;11833;52.554;13.554;2023-05-10T05:31:03;4.45;;;2.72;;
23322;SDS011;11833;52.554;13.554;2023-05-10T05:33:30;3.28;;;2.15;;
23322;SDS011;11833;52.554;13.554;2023-05-10T05:35:56;6.72;;;2.80;;
23322;SDS011;11833;52.554;13.554;2023-05-10T05:38:22;4.57;;;2.42;;
23322;SDS011;11833;52.554;13.554;2023-05-10T05:40:48;5.82;;;2.78;;
23322;SDS011;11833;52.554;13.554;2023-05-10T05:43:14;2.85;;;1.75;;
23322;SDS011;11833;52.554;13.554;2023-05-10T05:45:40;3.78;;;2.50;;
23322;SDS011;11833;52.554;13.554;2023-05-10T05:48:06;4.47;;;2.35;;
23322;SDS011;11833;52.554;13.554;2023-05-10T05:50:31;4.93;;;2.00;;
23322;SDS011;11833;52.554;13.554;2023-05-10T05:52:57;3.58;;;2.17;;
23322;SDS011;11833;52.554;13.554;2023-05-10T05:55:23;5.00;;;2.67;;
23322;SDS011;11833;52.554;13.554;2023-05-10T05:57:50;4.60;;;2.42;;
23322;SDS011;11833;52.554;13.554;2023-05-10T06:00:16;4.15;;;2.10;;
23322;SDS011;11833;52.554;13.554;2023-05-10T06:02:42;3.47;;;2.13;;
23322;SDS011;11833;52.554;13.554;2023-05-10T06:05:08;3.53;;;2.35;;
23322;SDS011;11833;52.554;13.554;2023-05-10T06:07:34;4.13;;;2.38;;
23322;SDS011;11833;52.554;13.554;2023-05-10T06:09:59;5.63;;;2.22;;
23322;SDS011;11833;52.554;13.554;2023-05-10T06:12:25;2.97;;;1.67;;
23322;SDS011;11833;52.554;13.554;2023-05-10T06:14:51;5.00;;;2.13;;
23322;SDS011;11833;52.554;13.554;2023-05-10T06:17:17;4.38;;;2.10;;
23322;SDS011;11833;52.554;13.554;2023-05-10T06:19:43;4.60;;;2.17;;
23322;SDS011;11833;52.554;13.554;2023-05-10T06:22:08;3.00;;;1.33;;
23322;SDS011;11833;52.554;13.554;2023-05-10T06:24:34;2.58;;;2.05;;
23322;SDS011;11833;52.554;13.554;2023-05-10T06:27:00;2.00;;;1.48;;
23322;SDS011;11833;52.554;13.554;2023-05-10T06:29:26;2.88;;;1.90;;
23322;SDS011;11833;52.554;13.554;2023-05-10T06:31:52;2.47;;;1.70;;
23322;SDS011;11833;52.554;13.554;2023-05-10T06:34:19;2.83;;;1.50;;
23322;SDS011;11833;52.554;13.554;2023-05-10T06:36:45;2.42;;;1.90;;
23322;SDS011;11833;52.554;13.554;2023-05-10T06:39:10;3.67;;;1.67;;
23322;SDS011;11833;52.554;13.554;2023-05-10T06:41:36;3.13;;;1.70;;
23322;SDS011;11833;52.554;13.554;2023-05-10T06:44:02;4.35;;;1.42;;
23322;SDS011;11833;52.554;13.554;2023-05-10T06:46:28;2.50;;;1.77;;
23322;SDS011;11833;52.554;13.554;2023-05-10T06:48:54;2.78;;;1.80;;
23322;SDS011;11833;52.554;13.554;2023-05-10T06:51:20;2.70;;;1.70;;
23322;SDS011;11833;52.554;13.554;2023-05-10T06:53:46;3.67;;;2.10;;
23322;SDS011;11833;52.554;13.554;2023-05-10T06:56:12;1.85;;;1.45;;
23322;SDS011;11833;52.554;13.554;2023-05-10T06:58:38;4.72;;;1.75;;
23322;SDS011;11833;52.554;13.554;2023-05-10T07:01:04;2.67;;;1.90;;
23322;SDS011;11833;52.554;13.554;2023-05-10T07:03:30;2.67;;;1.23;;
23322;SDS011;11833;52.554;13.554;2023-05-10T07:06:00;3.75;;;1.67;;
23322;SDS011;11833;52.554;13.554;2023-05-10T07:08:28;4.25;;;1.58;;
23322;SDS011;11833;52.554;13.554;2023-05-10T07:11:01;2.70;;;1.73;;
23322;SDS011;11833;52.554;13.554;2023-05-10T07:13:29;3.65;;;1.38;;
23322;SDS011;11833;52.554;13.554;2023-05-10T07:15:59;2.97;;;2.13;;
23322;SDS011;11833;52.554;13.554;2023-05-10T07:18:25;4.03;;;1.58;;
23322;SDS011;11833;52.554;13.554;2023-05-10T07:20:51;2.08;;;1.40;;
23322;SDS011;11833;52.554;13.554;2023-05-10T07:23:17;4.40;;;1.60;;
23322;SDS011;11833;52.554;13.554;2023-05-10T07:25:44;3.38;;;1.70;;
23322;SDS011;11833;52.554;13.554;2023-05-10T07:28:14;1.77;;;1.60;;
23322;SDS011;11833;52.554;13.554;2023-05-10T07:30:41;1.58;;;1.48;;
23322;SDS011;11833;52.554;13.554;2023-05-10T07:33:07;5.40;;;1.92;;
23322;SDS011;11833;52.554;13.554;2023-05-10T07:35:35;2.50;;;1.63;;
23322;SDS011;11833;52.554;13.554;2023-05-10T07:38:01;2.78;;;1.88;;
23322;SDS011;11833;52.554;13.554;2023-05-10T07:40:27;2.30;;;1.75;;
23322;SDS011;11833;52.554;13.554;2023-05-10T07:42:54;5.80;;;1.67;;
23322;SDS011;11833;52.554;13.554;2023-05-10T07:45:19;2.38;;;1.60;;
23322;SDS011;11833;52.554;13.554;2023-05-10T07:47:45;4.38;;;1.30;;
23322;SDS011;11833;52.554;13.554;2023-05-10T07:50:11;4.05;;;2.00;;
23322;SDS011;11833;52.554;13.554;2023-05-10T07:52:37;3.35;;;1.70;;
23322;SDS011;11833;52.554;13.554;2023-05-10T07:55:03;4.57;;;1.95;;
23322;SDS011;11833;52.554;13.554;2023-05-10T07:57:29;2.03;;;1.58;;
23322;SDS011;11833;52.554;13.554;2023-05-10T07:59:55;3.85;;;1.80;;
23322;SDS011;11833;52.554;13.554;2023-05-10T08:02:21;1.90;;;1.42;;
23322;SDS011;11833;52.554;13.554;2023-05-10T08:04:47;2.78;;;1.60;;
23322;SDS011;11833;52.554;13.554;2023-05-10T08:07:12;2.85;;;1.75;;
23322;SDS011;11833;52.554;13.554;2023-05-10T08:09:38;4.13;;;1.75;;
23322;SDS011;11833;52.554;13.554;2023-05-10T08:12:04;3.15;;;1.70;;
23322;SDS011;11833;52.554;13.554;2023-05-10T08:14:30;3.30;;;1.52;;
23322;SDS011;11833;52.554;13.554;2023-05-10T08:16:56;2.67;;;1.65;;
23322;SDS011;11833;52.554;13.554;2023-05-10T08:19:22;5.07;;;2.72;;
23322;SDS011;11833;52.554;13.554;2023-05-10T08:21:48;2.97;;;1.85;;
23322;SDS011;11833;52.554;13.554;2023-05-10T08:24:14;4.70;;;1.70;;
23322;SDS011;11833;52.554;13.554;2023-05-10T08:26:40;4.38;;;3.50;;
23322;SDS011;11833;52.554;13.554;2023-05-10T08:29:06;5.25;;;2.58;;
23322;SDS011;11833;52.554;13.554;2023-05-10T08:31:31;2.22;;;1.67;;
23322;SDS011;11833;52.554;13.554;2023-05-10T08:33:57;2.75;;;1.52;;
23322;SDS011;11833;52.554;13.554;2023-05-10T08:36:23;6.65;;;2.40;;
23322;SDS011;11833;52.554;13.554;2023-05-10T08:38:52;7.10;;;2.58;;
23322;SDS011;11833;52.554;13.554;2023-05-10T08:41:22;3.10;;;1.65;;
23322;SDS011;11833;52.554;13.554;2023-05-10T08:43:50;3.40;;;1.77;;
23322;SDS011;11833;52.554;13.554;2023-05-10T08:46:18;2.70;;;1.88;;
23322;SDS011;11833;52.554;13.554;2023-05-10T08:48:45;3.90;;;2.75;;
23322;SDS011;11833;52.554;13.554;2023-05-10T08:51:13;2.90;;;2.00;;
23322;SDS011;11833;52.554;13.554;2023-05-10T08:53:43;2.53;;;1.95;;
23322;SDS011;11833;52.554;13.554;2023-05-10T08:56:09;2.85;;;1.40;;
23322;SDS011;11833;52.554;13.554;2023-05-10T08:58:36;1.75;;;1.60;;
23322;SDS011;11833;52.554;13.554;2023-05-10T09:01:02;1.42;;;0.73;;
23322;SDS011;11833;52.554;13.554;2023-05-10T09:03:30;3.75;;;1.70;;
23322;SDS011;11833;52.554;13.554;2023-05-10T09:05:56;3.95;;;1.95;;
23322;SDS011;11833;52.554;13.554;2023-05-10T09:08:25;3.67;;;2.20;;
23322;SDS011;11833;52.554;13.554;2023-05-10T09:10:52;1.80;;;1.40;;
23322;SDS011;11833;52.554;13.554;2023-05-10T09:13:19;4.28;;;2.38;;
23322;SDS011;11833;52.554;13.554;2023-05-10T09:15:47;8.00;;;2.10;;
23322;SDS011;11833;52.554;13.554;2023-05-10T09:18:14;2.67;;;1.60;;
23322;SDS011;11833;52.554;13.554;2023-05-10T09:20:40;4.88;;;2.13;;
23322;SDS011;11833;52.554;13.554;2023-05-10T09:23:06;2.83;;;1.42;;
23322;SDS011;11833;52.554;13.554;2023-05-10T09:25:32;4.32;;;1.80;;
23322;SDS011;11833;52.554;13.554;2023-05-10T09:27:58;3.95;;;1.65;;
23322;SDS011;11833;52.554;13.554;2023-05-10T09:30:28;1.40;;;1.30;;
23322;SDS011;11833;52.554;13.554;2023-05-10T09:32:56;4.75;;;1.63;;
23322;SDS011;11833;52.554;13.554;2023-05-10T09:35:25;2.17;;;1.52;;
23322;SDS011;11833;52.554;13.554;2023-05-10T09:37:53;6.50;;;1.38;;
23322;SDS011;11833;52.554;13.554;2023-05-10T09:40:23;4.90;;;1.75;;
23322;SDS011;11833;52.554;13.554;2023-05-10T09:42:51;4.82;;;2.20;;
23322;SDS011;11833;52.554;13.554;2023-05-10T09:45:17;2.85;;;1.88;;
23322;SDS011;11833;52.554;13.554;2023-05-10T09:47:42;4.63;;;2.35;;
23322;SDS011;11833;52.554;13.554;2023-05-10T09:50:09;8.02;;;2.05;;
23322;SDS011;11833;52.554;13.554;2023-05-10T09:52:48;2.72;;;1.60;;
23322;SDS011;11833;52.554;13.554;2023-05-10T09:55:20;2.38;;;1.42;;
23322;SDS011;11833;52.554;13.554;2023-05-10T09:57:48;1.70;;;1.45;;
23322;SDS011;11833;52.554;13.554;2023-05-10T10:00:23;1.80;;;1.60;;
23322;SDS011;11833;52.554;13.554;2023-05-10T10:02:55;2.30;;;1.77;;
23322;SDS011;11833;52.554;13.554;2023-05-10T10:05:29;2.17;;;1.77;;
23322;SDS011;11833;52.554;13.554;2023-05-10T10:07:57;2.13;;;1.73;;
23322;SDS011;11833;52.554;13.554;2023-05-10T10:10:24;1.48;;;1.15;;
23322;SDS011;11833;52.554;13.554;2023-05-10T10:12:53;5.20;;;2.03;;
23322;SDS011;11833;52.554;13.554;2023-05-10T10:15:20;2.20;;;1.58;;
23322;SDS011;11833;52.554;13.554;2023-05-10T10:17:48;2.47;;;1.92;;
23322;SDS011;11833;52.554;13.554;2023-05-10T10:20:15;2.80;;;2.22;;
23322;SDS011;11833;52.554;13.554;2023-05-10T10:22:41;5.95;;;1.67;;
23322;SDS011;11833;52.554;13.554;2023-05-10T10:25:09;4.90;;;1.63;;
23322;SDS011;11833;52.554;13.554;2023-05-10T10:30:21;3.53;;;1.67;;
23322;SDS011;11833;52.554;13.554;2023-05-10T10:35:31;3.10;;;2.50;;
23322;SDS011;11833;52.554;13.554;2023-05-10T10:37:57;2.40;;;1.92;;
23322;SDS011;11833;52.554;13.554;2023-05-10T10:40:30;3.03;;;2.35;;
23322;SDS011;11833;52.554;13.554;2023-05-10T10:42:58;3.42;;;1.60;;
23322;SDS011;11833;52.554;13.554;2023-05-10T10:48:49;4.95;;;1.80;;
23322;SDS011;11833;52.554;13.554;2023-05-10T10:51:40;3.45;;;1.50;;
23322;SDS011;11833;52.554;13.554;2023-05-10T10:55:13;4.53;;;1.50;;
23322;SDS011;11833;52.554;13.554;2023-05-10T10:57:44;5.63;;;1.85;;
23322;SDS011;11833;52.554;13.554;2023-05-10T11:00:18;4.93;;;1.80;;
23322;SDS011;11833;52.554;13.554;2023-05-10T11:02:46;2.38;;;1.65;;
23322;SDS011;11833;52.554;13.554;2023-05-10T11:10:25;2.00;;;1.42;;
23322;SDS011;11833;52.554;13.554;2023-05-10T11:12:52;1.70;;;1.60;;
23322;SDS011;11833;52.554;13.554;2023-05-10T11:15:36;2.83;;;1.38;;
23322;SDS011;11833;52.554;13.554;2023-05-10T11:18:18;2.20;;;1.65;;
23322;SDS011;11833;52.554;13.554;2023-05-10T11:20:50;3.92;;;0.82;;
23322;SDS011;11833;52.554;13.554;2023-05-10T11:26:11;3.40;;;1.38;;
23322;SDS011;11833;52.554;13.554;2023-05-10T11:28:41;3.95;;;2.90;;
23322;SDS011;11833;52.554;13.554;2023-05-10T11:31:14;3.58;;;1.92;;
23322;SDS011;11833;52.554;13.554;2023-05-10T11:33:45;6.60;;;1.63;;
23322;SDS011;11833;52.554;13.554;2023-05-10T11:36:14;5.00;;;1.30;;
23322;SDS011;11833;52.554;13.554;2023-05-10T11:38:42;4.32;;;2.67;;
23322;SDS011;11833;52.554;13.554;2023-05-10T11:41:09;5.55;;;1.30;;
23322;SDS011;11833;52.554;13.554;2023-05-10T11:43:36;1.58;;;1.20;;
23322;SDS011;11833;52.554;13.554;2023-05-10T11:46:04;3.33;;;1.90;;
23322;SDS011;11833;52.554;13.554;2023-05-10T11:48:32;8.20;;;1.92;;
23322;SDS011;11833;52.554;13.554;2023-05-10T11:50:58;5.22;;;1.63;;
23322;SDS011;11833;52.554;13.554;2023-05-10T11:53:27;7.53;;;1.80;;
23322;SDS011;11833;52.554;13.554;2023-05-10T11:56:02;2.78;;;1.55;;
23322;SDS011;11833;52.554;13.554;2023-05-10T11:58:35;3.00;;;1.73;;
23322;SDS011;11833;52.554;13.554;2023-05-10T12:01:03;10.13;;;1.80;;
23322;SDS011;11833;52.554;13.554;2023-05-10T12:03:31;4.95;;;1.45;;
23322;SDS011;11833;52.554;13.554;2023-05-10T12:05:57;4.90;;;1.52;;
23322;SDS011;11833;52.554;13.554;2023-05-10T12:08:25;3.47;;;1.45;;
23322;SDS011;11833;52.554;13.554;2023-05-10T12:10:53;5.35;;;1.42;;
23322;SDS011;11833;52.554;13.554;2023-05-10T12:13:32;4.30;;;1.40;;
23322;SDS011;11833;52.554;13.554;2023-05-10T12:16:12;4.22;;;1.40;;
23322;SDS011;11833;52.554;13.554;2023-05-10T12:18:42;3.60;;;1.70;;
23322;SDS011;11833;52.554;13.554;2023-05-10T12:21:10;5.47;;;2.15;;
23322;SDS011;11833;52.554;13.554;2023-05-10T12:23:37;5.40;;;1.58;;
23322;SDS011;11833;52.554;13.554;2023-05-10T12:26:04;7.03;;;1.58;;
23322;SDS011;11833;52.554;13.554;2023-05-10T12:28:31;2.35;;;1.10;;
23322;SDS011;11833;52.554;13.554;2023-05-10T12:31:01;5.07;;;1.48;;
23322;SDS011;11833;52.554;13.554;2023-05-10T12:33:35;5.20;;;1.25;;
23322;SDS011;11833;52.554;13.554;2023-05-10T12:36:09;4.63;;;1.55;;
23322;SDS011;11833;52.554;13.554;2023-05-10T12:38:38;2.22;;;1.20;;
23322;SDS011;11833;52.554;13.554;2023-05-10T12:41:09;3.78;;;1.33;;
23322;SDS011;11833;52.554;13.554;2023-05-10T12:43:37;4.50;;;1.52;;
23322;SDS011;11833;52.554;13.554;2023-05-10T12:46:08;4.57;;;1.52;;
23322;SDS011;11833;52.554;13.554;2023-05-10T12:48:38;6.22;;;1.10;;
23322;SDS011;11833;52.554;13.554;2023-05-10T12:51:06;3.78;;;1.10;;
23322;SDS011;11833;52.554;13.554;2023-05-10T12:53:37;3.72;;;2.28;;
23322;SDS011;11833;52.554;13.554;2023-05-10T12:56:04;3.63;;;1.50;;
23322;SDS011;11833;52.554;13.554;2023-05-10T12:58:30;2.75;;;1.60;;
23322;SDS011;11833;52.554;13.554;2023-05-10T13:00:56;4.85;;;1.88;;
23322;SDS011;11833;52.554;13.554;2023-05-10T13:03:23;5.68;;;1.05;;
23322;SDS011;11833;52.554;13.554;2023-05-10T13:05:50;2.88;;;1.20;;
23322;SDS011;11833;52.554;13.554;2023-05-10T13:08:16;4.30;;;1.00;;
23322;SDS011;11833;52.554;13.554;2023-05-10T13:10:41;3.20;;;1.33;;
23322;SDS011;11833;52.554;13.554;2023-05-10T13:13:07;1.55;;;1.30;;
23322;SDS011;11833;52.554;13.554;2023-05-10T13:15:33;1.88;;;1.27;;
23322;SDS011;11833;52.554;13.554;2023-05-10T13:17:59;3.50;;;1.55;;
23322;SDS011;11833;52.554;13.554;2023-05-10T13:20:25;3.10;;;1.33;;
23322;SDS011;11833;52.554;13.554;2023-05-10T13:22:52;3.92;;;1.40;;
23322;SDS011;11833;52.554;13.554;2023-05-10T13:25:17;2.67;;;0.93;;
23322;SDS011;11833;52.554;13.554;2023-05-10T13:27:44;1.38;;;1.20;;
23322;SDS011;11833;52.554;13.554;2023-05-10T13:30:10;1.70;;;0.90;;
23322;SDS011;11833;52.554;13.554;2023-05-10T13:32:38;1.75;;;0.88;;
23322;SDS011;11833;52.554;13.554;2023-05-10T13:35:04;2.70;;;0.82;;
23322;SDS011;11833;52.554;13.554;2023-05-10T13:37:31;5.28;;;1.30;;
23322;SDS011;11833;52.554;13.554;2023-05-10T13:40:00;3.97;;;1.17;;
23322;SDS011;11833;52.554;13.554;2023-05-10T13:42:26;4.45;;;1.60;;
23322;SDS011;11833;52.554;13.554;2023-05-10T13:44:52;2.45;;;0.80;;
23322;SDS011;11833;52.554;13.554;2023-05-10T13:47:18;1.80;;;1.00;;
23322;SDS011;11833;52.554;13.554;2023-05-10T13:49:43;3.90;;;1.15;;
23322;SDS011;11833;52.554;13.554;2023-05-10T13:52:09;1.63;;;0.80;;
23322;SDS011;11833;52.554;13.554;2023-05-10T13:54:35;1.55;;;1.10;;
23322;SDS011;11833;52.554;13.554;2023-05-10T13:57:02;3.65;;;1.05;;
23322;SDS011;11833;52.554;13.554;2023-05-10T13:59:29;3.28;;;1.35;;
23322;SDS011;11833;52.554;13.554;2023-05-10T14:01:58;3.80;;;1.30;;
23322;SDS011;11833;52.554;13.554;2023-05-10T14:04:25;2.67;;;0.98;;
23322;SDS011;11833;52.554;13.554;2023-05-10T14:06:50;1.23;;;1.00;;
23322;SDS011;11833;52.554;13.554;2023-05-10T14:09:17;3.45;;;1.00;;
23322;SDS011;11833;52.554;13.554;2023-05-10T14:11:43;1.05;;;0.95;;
23322;SDS011;11833;52.554;13.554;2023-05-10T14:14:12;2.00;;;1.25;;
23322;SDS011;11833;52.554;13.554;2023-05-10T14:16:38;3.00;;;0.95;;
23322;SDS011;11833;52.554;13.554;2023-05-10T14:19:09;1.45;;;1.08;;
23322;SDS011;11833;52.554;13.554;2023-05-10T14:21:35;1.23;;;1.05;;
23322;SDS011;11833;52.554;13.554;2023-05-10T14:24:01;6.32;;;1.67;;
23322;SDS011;11833;52.554;13.554;2023-05-10T14:26:26;2.58;;;0.90;;
23322;SDS011;11833;52.554;13.554;2023-05-10T14:28:52;3.17;;;1.30;;
23322;SDS011;11833;52.554;13.554;2023-05-10T14:31:18;4.63;;;1.15;;
23322;SDS011;11833;52.554;13.554;2023-05-10T14:33:49;2.28;;;0.88;;
23322;SDS011;11833;52.554;13.554;2023-05-10T14:36:15;5.93;;;1.10;;
23322;SDS011;11833;52.554;13.554;2023-05-10T14:38:42;6.35;;;1.17;;
23322;SDS011;11833;52.554;13.554;2023-05-10T14:41:08;4.32;;;1.10;;
23322;SDS011;11833;52.554;13.554;2023-05-10T14:43:33;4.40;;;1.20;;
23322;SDS011;11833;52.554;13.554;2023-05-10T14:46:00;3.63;;;1.17;;
23322;SDS011;11833;52.554;13.554;2023-05-10T14:48:26;3.00;;;1.42;;
23322;SDS011;11833;52.554;13.554;2023-05-10T14:50:51;2.78;;;0.90;;
23322;SDS011;11833;52.554;13.554;2023-05-10T14:53:17;1.20;;;1.02;;
23322;SDS011;11833;52.554;13.554;2023-05-10T14:55:43;2.35;;;0.98;;
23322;SDS011;11833;52.554;13.554;2023-05-10T14:58:09;2.53;;;0.98;;
23322;SDS011;11833;52.554;13.554;2023-05-10T15:00:34;2.25;;;1.38;;
23322;SDS011;11833;52.554;13.554;2023-05-10T15:03:00;2.17;;;1.17;;
23322;SDS011;11833;52.554;13.554;2023-05-10T15:05:26;5.28;;;1.17;;
23322;SDS011;11833;52.554;13.554;2023-05-10T15:07:52;1.40;;;0.90;;
23322;SDS011;11833;52.554;13.554;2023-05-10T15:10:18;1.52;;;1.08;;
23322;SDS011;11833;52.554;13.554;2023-05-10T15:12:44;4.38;;;1.13;;